Bude — V7XL2 — position and weather

sailwx.info

Track history (hours):
 
Tides and Currents Weather Stations Pressure Air Temp Water Temp Dewpoint Dewpoint Depression Visibility Wind Speed Wind Dir Waves Ship Positions

Bude

Last reported at 2015-Jul-04 20:33 UTC. Time now 2015-Jul-04 20:47 UTC.
Position N 40°37' E 012°24'.

Length 119 m; draft 6.5 m.

Type: Cargo ship. MMSI: 538004506.

Date/timePositionNaut miles runAvg speedWind from/ knotsBaromVisibWave heightAir tempDewpointWater temp
2015-Jul-04 20:33N 40°37' E 012°24'10 9.2
2015-Jul-04 19:27N 40°44' E 012°14'157 9.0
2015-Jul-04 02:03N 42°36' E 009°47'5 9.2
2015-Jul-04 01:31N 42°40' E 009°45'9 9.2
2015-Jul-04 00:33N 42°49' E 009°41'11 9.3
2015-Jul-03 23:21N 42°60' E 009°36'8 9.1
2015-Jul-03 22:31N 43°07' E 009°35'9 9.5
2015-Jul-03 21:33N 43°16' E 009°38'10 9.6
2015-Jul-03 20:33N 43°25' E 009°42'10 9.9
2015-Jul-03 19:33N 43°35' E 009°46'10 9.9
2015-Jul-03 18:33N 43°44' E 009°49'10 9.6
2015-Jul-03 17:33N 43°52' E 009°56'9 9.1
2015-Jul-03 16:33N 43°60' E 010°03'2 1.5
2015-Jul-03 15:19N 44°02' E 010°03'0 0.0
2015-Jul-03 14:28N 44°02' E 010°03'0 0.0
2015-Jul-03 13:31N 44°02' E 010°03'0 0.0
2015-Jul-03 12:31N 44°02' E 010°03'0 0.0
2015-Jul-03 11:13N 44°02' E 010°03'0 0.0
2015-Jul-03 10:31N 44°02' E 010°03'0 0.0
2015-Jul-03 09:28N 44°02' E 010°03'0 0.0
2015-Jul-03 08:31N 44°02' E 010°03'0 0.0
2015-Jul-03 07:28N 44°02' E 010°03'0 0.0
2015-Jul-03 06:31N 44°02' E 010°03'0 0.0
2015-Jul-03 05:16N 44°02' E 010°03'0 0.0
2015-Jul-03 04:25N 44°02' E 010°03'0 0.0
2015-Jul-03 03:25N 44°02' E 010°03'0 0.0
2015-Jul-03 02:31N 44°02' E 010°03'0 0.0
2015-Jul-03 01:25N 44°02' E 010°03'0 0.0
2015-Jul-03 00:31N 44°02' E 010°03'0 0.0
2015-Jul-02 23:25N 44°02' E 010°03'0 0.0
2015-Jul-02 22:31N 44°02' E 010°03'0 0.0
2015-Jul-02 20:31N 44°02' E 010°03'0 0.0
2015-Jul-02 18:31N 44°02' E 010°03'0 0.0
2015-Jul-02 17:31N 44°02' E 010°03'0 0.0
2015-Jul-02 16:24N 44°02' E 010°03'0 0.0
2015-Jul-02 15:33N 44°02' E 010°03'0 0.0
2015-Jul-02 14:18N 44°02' E 010°03'0 0.0
2015-Jul-02 13:30N 44°02' E 010°03'0 0.0
2015-Jul-02 12:24N 44°02' E 010°03'0 0.0
2015-Jul-02 10:18N 44°02' E 010°03'0 0.0
2015-Jul-02 09:30N 44°02' E 010°03'0 0.0
2015-Jul-02 07:30N 44°02' E 010°03'0 0.0
2015-Jul-02 02:12N 44°02' E 010°03'0 0.0
2015-Jul-02 01:27N 44°02' E 010°03'0 0.0
2015-Jul-01 23:33N 44°02' E 010°03'0 0.0
2015-Jul-01 22:30N 44°02' E 010°03'0 0.0
2015-Jul-01 20:33N 44°02' E 010°03'0 0.0
2015-Jul-01 18:21N 44°02' E 010°03'0 0.0
2015-Jul-01 17:33N 44°02' E 010°03'0 0.0
2015-Jul-01 16:33N 44°02' E 010°03'0 0.0
2015-Jul-01 15:30N 44°02' E 010°03'0 0.0
2015-Jul-01 14:33N 44°02' E 010°03'0 0.0
2015-Jul-01 13:15N 44°02' E 010°03'0 0.0
2015-Jul-01 12:33N 44°02' E 010°03'0 0.0
2015-Jul-01 11:27N 44°02' E 010°03'0 0.0
2015-Jul-01 10:33N 44°02' E 010°03'0 0.0
2015-Jul-01 09:33N 44°02' E 010°03'3 3.5
2015-Jul-01 08:33N 43°60' E 009°59'9 9.4
2015-Jul-01 07:33N 43°60' E 009°46'1010.2
2015-Jul-01 06:33N 44°00' E 009°32'1010.2
2015-Jul-01 05:33N 43°59' E 009°18'8 8.2
2015-Jul-01 04:33N 44°04' E 009°09'10 9.9
2015-Jul-01 03:33N 44°14' E 009°04'9 8.8
2015-Jul-01 02:33N 44°22' E 009°00'0 0.0
2015-Jul-01 01:28N 44°22' E 009°00'0 0.0
2015-Jul-01 00:31N 44°22' E 009°00'0 0.0
2015-Jun-30 23:31N 44°22' E 009°00'0 0.0
2015-Jun-30 22:16N 44°22' E 009°00'0 0.0
2015-Jun-30 21:31N 44°22' E 009°00'0 0.0
2015-Jun-30 20:28N 44°22' E 009°00'0 0.0
2015-Jun-30 19:31N 44°22' E 009°00'0 0.0
2015-Jun-30 18:31N 44°22' E 009°00'0 0.0
2015-Jun-30 17:28N 44°22' E 009°00'0 0.0
2015-Jun-30 16:28N 44°22' E 009°00'0 0.0
2015-Jun-30 15:22N 44°22' E 009°00'0 0.0
2015-Jun-30 14:28N 44°22' E 009°00'0 0.0
2015-Jun-30 13:28N 44°22' E 009°00'0 0.0
2015-Jun-30 12:28N 44°22' E 009°00'0 0.0
2015-Jun-30 11:31N 44°22' E 009°00'0 0.0
2015-Jun-30 10:31N 44°22' E 009°00'0 0.0
2015-Jun-30 09:25N 44°22' E 009°00'0 0.0
2015-Jun-30 08:28N 44°22' E 009°00'0 0.0
2015-Jun-30 07:28N 44°22' E 009°00'0 0.0
2015-Jun-30 06:28N 44°22' E 009°00'0 0.0
2015-Jun-30 05:27N 44°22' E 009°00'0 0.0
2015-Jun-30 04:33N 44°22' E 009°00'0 0.0
2015-Jun-30 03:33N 44°22' E 009°00'0 0.0
2015-Jun-30 02:33N 44°22' E 009°00'0 0.0
2015-Jun-30 01:30N 44°22' E 009°00'0 0.0
2015-Jun-30 00:33N 44°22' E 009°00'0 0.0
2015-Jun-29 23:33N 44°22' E 009°00'0 0.0
2015-Jun-29 22:33N 44°22' E 009°00'0 0.0
2015-Jun-29 21:33N 44°22' E 009°00'0 0.0
2015-Jun-29 20:27N 44°22' E 009°00'0 0.0
2015-Jun-29 19:33N 44°22' E 009°00'0 0.0
2015-Jun-29 18:33N 44°22' E 009°00'0 0.0
2015-Jun-29 17:30N 44°22' E 009°00'0 0.0
2015-Jun-29 16:30N 44°22' E 009°00'0 0.0
2015-Jun-29 15:18N 44°22' E 009°00'0 0.0
2015-Jun-29 14:33N 44°22' E 009°00'0 0.0
2015-Jun-29 13:33N 44°22' E 009°00'0 0.0
2015-Jun-29 12:27N 44°22' E 009°00'0 0.0
2015-Jun-29 11:33N 44°22' E 009°00'0 0.0
2015-Jun-29 10:33N 44°22' E 009°00'0 0.0
2015-Jun-29 09:33N 44°22' E 009°00'0 0.0
2015-Jun-29 08:33N 44°22' E 008°60'0 0.0
2015-Jun-29 07:30N 44°22' E 008°60'0 0.0
2015-Jun-29 06:33N 44°22' E 008°60'0 0.0
2015-Jun-29 05:33N 44°22' E 008°60'0 0.0
2015-Jun-29 04:33N 44°22' E 008°60'0 0.0
2015-Jun-29 03:32N 44°22' E 009°00'0 0.0
2015-Jun-29 02:32N 44°22' E 009°00'0 0.0
2015-Jun-29 01:26N 44°22' E 009°00'0 0.0
2015-Jun-29 00:14N 44°22' E 009°00'0 0.0
2015-Jun-28 23:32N 44°22' E 009°00'0 0.0
2015-Jun-28 22:32N 44°22' E 009°00'0 0.0
2015-Jun-28 21:32N 44°22' E 009°00'0 0.0
2015-Jun-28 20:32N 44°22' E 009°00'0 0.0
2015-Jun-28 19:32N 44°22' E 009°00'0 0.0
2015-Jun-28 18:32N 44°22' E 009°00'0 0.0
2015-Jun-28 17:32N 44°22' E 009°00'0 0.0
2015-Jun-28 16:26N 44°22' E 009°00'0 0.0
2015-Jun-28 15:32N 44°22' E 009°00'0 0.0
2015-Jun-28 14:32N 44°22' E 008°60'0 0.0
2015-Jun-28 13:32N 44°22' E 008°60'0 0.0
2015-Jun-28 12:32N 44°22' E 008°60'0 0.0
2015-Jun-28 11:32N 44°22' E 008°60'0 0.0
2015-Jun-28 10:32N 44°22' E 008°60'0 0.0
2015-Jun-28 09:32N 44°22' E 008°60'0 0.0
2015-Jun-28 08:32N 44°22' E 008°60'0 0.0
2015-Jun-28 07:32N 44°22' E 008°60'0 0.0
2015-Jun-28 06:32N 44°22' E 008°60'0 0.1
2015-Jun-28 05:32N 44°22' E 008°60'0 0.0
2015-Jun-28 04:26N 44°22' E 008°60'0 0.1
2015-Jun-28 03:32N 44°22' E 008°60'0 0.1
2015-Jun-28 02:26N 44°22' E 008°60'0 0.0
2015-Jun-28 01:32N 44°22' E 008°60'0 0.0
2015-Jun-28 00:29N 44°22' E 008°60'0 0.0
2015-Jun-27 23:32N 44°22' E 008°60'0 0.0
2015-Jun-27 22:32N 44°22' E 008°60'0 0.0
2015-Jun-27 21:32N 44°22' E 008°60'0 0.0
2015-Jun-27 20:23N 44°22' E 009°00'0 0.0
2015-Jun-27 19:23N 44°22' E 009°00'0 0.0
2015-Jun-27 18:32N 44°22' E 009°00'0 0.0
2015-Jun-27 17:20N 44°22' E 009°00'0 0.0
2015-Jun-27 16:32N 44°22' E 009°00'0 0.0
2015-Jun-27 15:32N 44°22' E 009°00'0 0.0
2015-Jun-27 14:26N 44°22' E 008°60'0 0.0
2015-Jun-27 13:31N 44°22' E 008°60'0 0.0
2015-Jun-27 12:31N 44°22' E 008°60'0 0.0
2015-Jun-27 11:31N 44°22' E 008°60'0 0.0
2015-Jun-27 10:28N 44°22' E 008°60'0 0.0
2015-Jun-27 09:31N 44°22' E 008°60'0 0.0
2015-Jun-27 08:22N 44°22' E 008°60'0 0.0
2015-Jun-27 07:31N 44°22' E 008°60'0 0.0
2015-Jun-27 06:25N 44°22' E 008°60'0 0.0
2015-Jun-27 05:25N 44°22' E 008°60'0 0.0
2015-Jun-27 04:25N 44°22' E 008°60'0 0.0
2015-Jun-27 03:31N 44°22' E 008°60'0 0.0
2015-Jun-27 02:31N 44°22' E 008°60'0 0.0
2015-Jun-27 01:31N 44°22' E 008°60'0 0.1
2015-Jun-27 00:28N 44°22' E 008°60'0 0.0
2015-Jun-26 23:31N 44°22' E 008°60'0 0.0
2015-Jun-26 22:31N 44°22' E 008°60'0 0.1
2015-Jun-26 21:28N 44°22' E 008°60'0 0.0
2015-Jun-26 20:31N 44°22' E 009°00'0 0.0
2015-Jun-26 19:31N 44°22' E 008°60'0 0.0
2015-Jun-26 18:31N 44°22' E 008°60'0 0.0
2015-Jun-26 17:25N 44°22' E 008°60'0 0.0
2015-Jun-26 16:31N 44°22' E 008°60'0 0.0
2015-Jun-26 15:28N 44°22' E 008°60'0 0.0
2015-Jun-26 14:31N 44°22' E 008°60'0 0.0
2015-Jun-26 13:28N 44°22' E 008°60'0 0.0
2015-Jun-26 12:31N 44°22' E 008°60'0 0.0
2015-Jun-26 11:31N 44°22' E 008°60'0 0.0
2015-Jun-26 10:31N 44°22' E 008°60'0 0.0
2015-Jun-26 09:31N 44°22' E 008°60'0 0.0
2015-Jun-26 08:28N 44°22' E 008°60'0 0.0
2015-Jun-26 07:31N 44°22' E 008°60'0 0.1
2015-Jun-26 06:31N 44°22' E 008°60'0 0.1
2015-Jun-26 05:31N 44°22' E 008°60'0 0.0
2015-Jun-26 04:31N 44°22' E 008°60'0 0.0
2015-Jun-26 03:31N 44°22' E 008°60'0 0.0
2015-Jun-26 02:31N 44°22' E 008°60'0 0.0
2015-Jun-26 01:34N 44°22' E 008°60'0 0.0
2015-Jun-26 00:33N 44°22' E 008°60'0 0.0
2015-Jun-25 23:30N 44°22' E 008°60'0 0.0
2015-Jun-25 22:33N 44°22' E 008°60'0 0.1
2015-Jun-25 21:30N 44°22' E 008°60'0 0.0
2015-Jun-25 20:33N 44°22' E 008°60'0 0.0
2015-Jun-25 19:33N 44°22' E 008°60'0 0.0
2015-Jun-25 18:33N 44°22' E 008°60'0 0.0
2015-Jun-25 17:30N 44°22' E 009°00'0 0.0
2015-Jun-25 16:30N 44°22' E 009°00'0 0.0
2015-Jun-25 15:33N 44°22' E 009°00'0 0.0
2015-Jun-25 14:33N 44°22' E 009°00'0 0.0
2015-Jun-25 13:30N 44°22' E 009°00'0 0.0
2015-Jun-25 12:30N 44°22' E 008°60'0 0.0
2015-Jun-25 11:33N 44°22' E 008°60'0 0.0
2015-Jun-25 10:30N 44°22' E 008°60'0 0.0
2015-Jun-25 09:33N 44°22' E 008°60'0 0.0
2015-Jun-25 08:33N 44°22' E 008°60'0 0.1
2015-Jun-25 07:33N 44°22' E 008°60'0 0.0
2015-Jun-25 06:33N 44°22' E 008°60'0 0.0
2015-Jun-25 05:33N 44°22' E 008°60'0 0.0
2015-Jun-25 04:33N 44°22' E 008°60'0 0.0
2015-Jun-25 03:33N 44°22' E 008°60'0 0.0
2015-Jun-25 02:33N 44°22' E 008°60'0 0.0
2015-Jun-25 01:33N 44°22' E 008°60'0 0.0
2015-Jun-25 00:33N 44°22' E 008°60'0 0.0
2015-Jun-24 23:33N 44°22' E 008°60'0 0.1
2015-Jun-24 22:33N 44°22' E 008°60'0 0.0
2015-Jun-24 21:33N 44°22' E 008°60'0 0.1
2015-Jun-24 20:33N 44°22' E 008°60'  
Track history (hours):
 
Tides and Currents Weather Stations Pressure Air Temp Water Temp Dewpoint Dewpoint Depression Visibility Wind Speed Wind Dir Waves Ship Positions

Bude

Last reported at 2015-Jul-04 20:33 UTC. Time now 2015-Jul-04 20:47 UTC.
Position N 40°37' E 012°24'.

Length 119 m; draft 6.5 m.

Type: Cargo ship. MMSI: 538004506.

Date/timePositionNaut miles runAvg speedWind from/ knotsBaromVisibWave heightAir tempDewpointWater temp
2015-Jul-04 20:33N 40°37' E 012°24'10 9.2
2015-Jul-04 19:27N 40°44' E 012°14'157 9.0
2015-Jul-04 02:03N 42°36' E 009°47'5 9.2
2015-Jul-04 01:31N 42°40' E 009°45'9 9.2
2015-Jul-04 00:33N 42°49' E 009°41'11 9.3
2015-Jul-03 23:21N 42°60' E 009°36'8 9.1
2015-Jul-03 22:31N 43°07' E 009°35'9 9.5
2015-Jul-03 21:33N 43°16' E 009°38'10 9.6
2015-Jul-03 20:33N 43°25' E 009°42'10 9.9
2015-Jul-03 19:33N 43°35' E 009°46'10 9.9
2015-Jul-03 18:33N 43°44' E 009°49'10 9.6
2015-Jul-03 17:33N 43°52' E 009°56'9 9.1
2015-Jul-03 16:33N 43°60' E 010°03'2 1.5
2015-Jul-03 15:19N 44°02' E 010°03'0 0.0
2015-Jul-03 14:28N 44°02' E 010°03'0 0.0
2015-Jul-03 13:31N 44°02' E 010°03'0 0.0
2015-Jul-03 12:31N 44°02' E 010°03'0 0.0
2015-Jul-03 11:13N 44°02' E 010°03'0 0.0
2015-Jul-03 10:31N 44°02' E 010°03'0 0.0
2015-Jul-03 09:28N 44°02' E 010°03'0 0.0
2015-Jul-03 08:31N 44°02' E 010°03'0 0.0
2015-Jul-03 07:28N 44°02' E 010°03'0 0.0
2015-Jul-03 06:31N 44°02' E 010°03'0 0.0
2015-Jul-03 05:16N 44°02' E 010°03'0 0.0
2015-Jul-03 04:25N 44°02' E 010°03'0 0.0
2015-Jul-03 03:25N 44°02' E 010°03'0 0.0
2015-Jul-03 02:31N 44°02' E 010°03'0 0.0
2015-Jul-03 01:25N 44°02' E 010°03'0 0.0
2015-Jul-03 00:31N 44°02' E 010°03'0 0.0
2015-Jul-02 23:25N 44°02' E 010°03'0 0.0
2015-Jul-02 22:31N 44°02' E 010°03'0 0.0
2015-Jul-02 20:31N 44°02' E 010°03'0 0.0
2015-Jul-02 18:31N 44°02' E 010°03'0 0.0
2015-Jul-02 17:31N 44°02' E 010°03'0 0.0
2015-Jul-02 16:24N 44°02' E 010°03'0 0.0
2015-Jul-02 15:33N 44°02' E 010°03'0 0.0
2015-Jul-02 14:18N 44°02' E 010°03'0 0.0
2015-Jul-02 13:30N 44°02' E 010°03'0 0.0
2015-Jul-02 12:24N 44°02' E 010°03'0 0.0
2015-Jul-02 10:18N 44°02' E 010°03'0 0.0
2015-Jul-02 09:30N 44°02' E 010°03'0 0.0
2015-Jul-02 07:30N 44°02' E 010°03'0 0.0
2015-Jul-02 02:12N 44°02' E 010°03'0 0.0
2015-Jul-02 01:27N 44°02' E 010°03'0 0.0
2015-Jul-01 23:33N 44°02' E 010°03'0 0.0
2015-Jul-01 22:30N 44°02' E 010°03'0 0.0
2015-Jul-01 20:33N 44°02' E 010°03'0 0.0
2015-Jul-01 18:21N 44°02' E 010°03'0 0.0
2015-Jul-01 17:33N 44°02' E 010°03'0 0.0
2015-Jul-01 16:33N 44°02' E 010°03'0 0.0
2015-Jul-01 15:30N 44°02' E 010°03'0 0.0
2015-Jul-01 14:33N 44°02' E 010°03'0 0.0
2015-Jul-01 13:15N 44°02' E 010°03'0 0.0
2015-Jul-01 12:33N 44°02' E 010°03'0 0.0
2015-Jul-01 11:27N 44°02' E 010°03'0 0.0
2015-Jul-01 10:33N 44°02' E 010°03'0 0.0
2015-Jul-01 09:33N 44°02' E 010°03'3 3.5
2015-Jul-01 08:33N 43°60' E 009°59'9 9.4
2015-Jul-01 07:33N 43°60' E 009°46'1010.2
2015-Jul-01 06:33N 44°00' E 009°32'1010.2
2015-Jul-01 05:33N 43°59' E 009°18'8 8.2
2015-Jul-01 04:33N 44°04' E 009°09'10 9.9
2015-Jul-01 03:33N 44°14' E 009°04'9 8.8
2015-Jul-01 02:33N 44°22' E 009°00'0 0.0
2015-Jul-01 01:28N 44°22' E 009°00'0 0.0
2015-Jul-01 00:31N 44°22' E 009°00'0 0.0
2015-Jun-30 23:31N 44°22' E 009°00'0 0.0
2015-Jun-30 22:16N 44°22' E 009°00'0 0.0
2015-Jun-30 21:31N 44°22' E 009°00'0 0.0
2015-Jun-30 20:28N 44°22' E 009°00'0 0.0
2015-Jun-30 19:31N 44°22' E 009°00'0 0.0
2015-Jun-30 18:31N 44°22' E 009°00'0 0.0
2015-Jun-30 17:28N 44°22' E 009°00'0 0.0
2015-Jun-30 16:28N 44°22' E 009°00'0 0.0
2015-Jun-30 15:22N 44°22' E 009°00'0 0.0
2015-Jun-30 14:28N 44°22' E 009°00'0 0.0
2015-Jun-30 13:28N 44°22' E 009°00'0 0.0
2015-Jun-30 12:28N 44°22' E 009°00'0 0.0
2015-Jun-30 11:31N 44°22' E 009°00'0 0.0
2015-Jun-30 10:31N 44°22' E 009°00'0 0.0
2015-Jun-30 09:25N 44°22' E 009°00'0 0.0
2015-Jun-30 08:28N 44°22' E 009°00'0 0.0
2015-Jun-30 07:28N 44°22' E 009°00'0 0.0
2015-Jun-30 06:28N 44°22' E 009°00'0 0.0
2015-Jun-30 05:27N 44°22' E 009°00'0 0.0
2015-Jun-30 04:33N 44°22' E 009°00'0 0.0
2015-Jun-30 03:33N 44°22' E 009°00'0 0.0
2015-Jun-30 02:33N 44°22' E 009°00'0 0.0
2015-Jun-30 01:30N 44°22' E 009°00'0 0.0
2015-Jun-30 00:33N 44°22' E 009°00'0 0.0
2015-Jun-29 23:33N 44°22' E 009°00'0 0.0
2015-Jun-29 22:33N 44°22' E 009°00'0 0.0
2015-Jun-29 21:33N 44°22' E 009°00'0 0.0
2015-Jun-29 20:27N 44°22' E 009°00'0 0.0
2015-Jun-29 19:33N 44°22' E 009°00'0 0.0
2015-Jun-29 18:33N 44°22' E 009°00'0 0.0
2015-Jun-29 17:30N 44°22' E 009°00'0 0.0
2015-Jun-29 16:30N 44°22' E 009°00'0 0.0
2015-Jun-29 15:18N 44°22' E 009°00'0 0.0
2015-Jun-29 14:33N 44°22' E 009°00'0 0.0
2015-Jun-29 13:33N 44°22' E 009°00'0 0.0
2015-Jun-29 12:27N 44°22' E 009°00'0 0.0
2015-Jun-29 11:33N 44°22' E 009°00'0 0.0
2015-Jun-29 10:33N 44°22' E 009°00'0 0.0
2015-Jun-29 09:33N 44°22' E 009°00'0 0.0
2015-Jun-29 08:33N 44°22' E 008°60'0 0.0
2015-Jun-29 07:30N 44°22' E 008°60'0 0.0
2015-Jun-29 06:33N 44°22' E 008°60'0 0.0
2015-Jun-29 05:33N 44°22' E 008°60'0 0.0
2015-Jun-29 04:33N 44°22' E 008°60'0 0.0
2015-Jun-29 03:32N 44°22' E 009°00'0 0.0
2015-Jun-29 02:32N 44°22' E 009°00'0 0.0
2015-Jun-29 01:26N 44°22' E 009°00'0 0.0
2015-Jun-29 00:14N 44°22' E 009°00'0 0.0
2015-Jun-28 23:32N 44°22' E 009°00'0 0.0
2015-Jun-28 22:32N 44°22' E 009°00'0 0.0
2015-Jun-28 21:32N 44°22' E 009°00'0 0.0
2015-Jun-28 20:32N 44°22' E 009°00'0 0.0
2015-Jun-28 19:32N 44°22' E 009°00'0 0.0
2015-Jun-28 18:32N 44°22' E 009°00'0 0.0
2015-Jun-28 17:32N 44°22' E 009°00'0 0.0
2015-Jun-28 16:26N 44°22' E 009°00'0 0.0
2015-Jun-28 15:32N 44°22' E 009°00'0 0.0
2015-Jun-28 14:32N 44°22' E 008°60'0 0.0
2015-Jun-28 13:32N 44°22' E 008°60'0 0.0
2015-Jun-28 12:32N 44°22' E 008°60'0 0.0
2015-Jun-28 11:32N 44°22' E 008°60'0 0.0
2015-Jun-28 10:32N 44°22' E 008°60'0 0.0
2015-Jun-28 09:32N 44°22' E 008°60'0 0.0
2015-Jun-28 08:32N 44°22' E 008°60'0 0.0
2015-Jun-28 07:32N 44°22' E 008°60'0 0.0
2015-Jun-28 06:32N 44°22' E 008°60'0 0.1
2015-Jun-28 05:32N 44°22' E 008°60'0 0.0
2015-Jun-28 04:26N 44°22' E 008°60'0 0.1
2015-Jun-28 03:32N 44°22' E 008°60'0 0.1
2015-Jun-28 02:26N 44°22' E 008°60'0 0.0
2015-Jun-28 01:32N 44°22' E 008°60'0 0.0
2015-Jun-28 00:29N 44°22' E 008°60'0 0.0
2015-Jun-27 23:32N 44°22' E 008°60'0 0.0
2015-Jun-27 22:32N 44°22' E 008°60'0 0.0
2015-Jun-27 21:32N 44°22' E 008°60'0 0.0
2015-Jun-27 20:23N 44°22' E 009°00'0 0.0
2015-Jun-27 19:23N 44°22' E 009°00'0 0.0
2015-Jun-27 18:32N 44°22' E 009°00'0 0.0
2015-Jun-27 17:20N 44°22' E 009°00'0 0.0
2015-Jun-27 16:32N 44°22' E 009°00'0 0.0
2015-Jun-27 15:32N 44°22' E 009°00'0 0.0
2015-Jun-27 14:26N 44°22' E 008°60'0 0.0
2015-Jun-27 13:31N 44°22' E 008°60'0 0.0
2015-Jun-27 12:31N 44°22' E 008°60'0 0.0
2015-Jun-27 11:31N 44°22' E 008°60'0 0.0
2015-Jun-27 10:28N 44°22' E 008°60'0 0.0
2015-Jun-27 09:31N 44°22' E 008°60'0 0.0
2015-Jun-27 08:22N 44°22' E 008°60'0 0.0
2015-Jun-27 07:31N 44°22' E 008°60'0 0.0
2015-Jun-27 06:25N 44°22' E 008°60'0 0.0
2015-Jun-27 05:25N 44°22' E 008°60'0 0.0
2015-Jun-27 04:25N 44°22' E 008°60'0 0.0
2015-Jun-27 03:31N 44°22' E 008°60'0 0.0
2015-Jun-27 02:31N 44°22' E 008°60'0 0.0
2015-Jun-27 01:31N 44°22' E 008°60'0 0.1
2015-Jun-27 00:28N 44°22' E 008°60'0 0.0
2015-Jun-26 23:31N 44°22' E 008°60'0 0.0
2015-Jun-26 22:31N 44°22' E 008°60'0 0.1
2015-Jun-26 21:28N 44°22' E 008°60'0 0.0
2015-Jun-26 20:31N 44°22' E 009°00'0 0.0
2015-Jun-26 19:31N 44°22' E 008°60'0 0.0
2015-Jun-26 18:31N 44°22' E 008°60'0 0.0
2015-Jun-26 17:25N 44°22' E 008°60'0 0.0
2015-Jun-26 16:31N 44°22' E 008°60'0 0.0
2015-Jun-26 15:28N 44°22' E 008°60'0 0.0
2015-Jun-26 14:31N 44°22' E 008°60'0 0.0
2015-Jun-26 13:28N 44°22' E 008°60'0 0.0
2015-Jun-26 12:31N 44°22' E 008°60'0 0.0
2015-Jun-26 11:31N 44°22' E 008°60'0 0.0
2015-Jun-26 10:31N 44°22' E 008°60'0 0.0
2015-Jun-26 09:31N 44°22' E 008°60'0 0.0
2015-Jun-26 08:28N 44°22' E 008°60'0 0.0
2015-Jun-26 07:31N 44°22' E 008°60'0 0.1
2015-Jun-26 06:31N 44°22' E 008°60'0 0.1
2015-Jun-26 05:31N 44°22' E 008°60'0 0.0
2015-Jun-26 04:31N 44°22' E 008°60'0 0.0
2015-Jun-26 03:31N 44°22' E 008°60'0 0.0
2015-Jun-26 02:31N 44°22' E 008°60'0 0.0
2015-Jun-26 01:34N 44°22' E 008°60'0 0.0
2015-Jun-26 00:33N 44°22' E 008°60'0 0.0
2015-Jun-25 23:30N 44°22' E 008°60'0 0.0
2015-Jun-25 22:33N 44°22' E 008°60'0 0.1
2015-Jun-25 21:30N 44°22' E 008°60'0 0.0
2015-Jun-25 20:33N 44°22' E 008°60'0 0.0
2015-Jun-25 19:33N 44°22' E 008°60'0 0.0
2015-Jun-25 18:33N 44°22' E 008°60'0 0.0
2015-Jun-25 17:30N 44°22' E 009°00'0 0.0
2015-Jun-25 16:30N 44°22' E 009°00'0 0.0
2015-Jun-25 15:33N 44°22' E 009°00'0 0.0
2015-Jun-25 14:33N 44°22' E 009°00'0 0.0
2015-Jun-25 13:30N 44°22' E 009°00'0 0.0
2015-Jun-25 12:30N 44°22' E 008°60'0 0.0
2015-Jun-25 11:33N 44°22' E 008°60'0 0.0
2015-Jun-25 10:30N 44°22' E 008°60'0 0.0
2015-Jun-25 09:33N 44°22' E 008°60'0 0.0
2015-Jun-25 08:33N 44°22' E 008°60'0 0.1
2015-Jun-25 07:33N 44°22' E 008°60'0 0.0
2015-Jun-25 06:33N 44°22' E 008°60'0 0.0
2015-Jun-25 05:33N 44°22' E 008°60'0 0.0
2015-Jun-25 04:33N 44°22' E 008°60'0 0.0
2015-Jun-25 03:33N 44°22' E 008°60'0 0.0
2015-Jun-25 02:33N 44°22' E 008°60'0 0.0
2015-Jun-25 01:33N 44°22' E 008°60'0 0.0
2015-Jun-25 00:33N 44°22' E 008°60'0 0.0
2015-Jun-24 23:33N 44°22' E 008°60'0 0.1
2015-Jun-24 22:33N 44°22' E 008°60'0 0.0
2015-Jun-24 21:33N 44°22' E 008°60'0 0.1
2015-Jun-24 20:33N 44°22' E 008°60'  

Dump ship's entire track history